Time;durP1;ratioP1;P1;durP2;ratioP2;P2;SDS_P1;SDS_P2;PMS_P1;PMS_P2;Temp;Humidity;BMP_temperature;BMP_pressure;BME280_temperature;BME280_humidity;BME280_pressure;Samples;Min_cycle;Max_cycle;Signal;HPM_P1;HPM_P2
2022/01/06 00:00:39;;;;;;;;;;;;;;;3.85;89.88;98614.70;1706678;83;20321;-77
2022/01/06 00:03:05;;;;;;;;;;;;;;;3.97;90.47;98618.41;1697029;83;21094;-76
2022/01/06 00:05:30;;;;;;;;;;;;;;;3.73;90.93;98614.63;1691557;83;20240;-76
2022/01/06 00:07:56;;;;;;;;;;;;;;;3.83;91.74;98610.12;1706112;83;20152;-78
2022/01/06 00:10:23;;;;;;;;;;;;;;;3.68;92.38;98601.19;1706160;83;20339;-77
2022/01/06 00:13:08;;;;;;;;;;;;;;;3.35;94.79;98605.63;1709897;83;20246;-78
2022/01/06 00:23:27;;;;;;;;;;;;;;;3.64;94.30;98605.09;1703179;82;20549;-78
2022/01/06 00:25:48;;;;;;;;;;;;;;;3.54;94.65;98602.07;1701974;83;20199;-78
2022/01/06 00:28:14;;;;;;;;;;;;;;;3.68;93.98;98595.97;1702190;83;21104;-84
2022/01/06 00:30:40;;;;;;;;;;;;;;;3.58;94.02;98603.89;1711014;83;20473;-75
2022/01/06 00:33:05;;;;;;;;;;;;;;;3.70;93.81;98603.19;1715186;83;20294;-81
2022/01/06 00:35:31;;;;;;;;;;;;;;;3.80;93.50;98599.98;1699872;83;20255;-77
2022/01/06 00:37:57;;;;;;;;;;;;;;;3.70;93.09;98599.27;1701788;83;20227;-76
2022/01/06 00:40:23;;;;;;;;;;;;;;;3.67;93.02;98600.88;1694365;83;21205;-79
2022/01/06 00:42:48;;;;;;;;;;;;;;;3.78;92.95;98601.94;1696797;83;20286;-76
2022/01/06 00:45:14;;;;;;;;;;;;;;;3.72;92.42;98603.84;1693085;83;21171;-78
2022/01/06 00:47:39;;;;;;;;;;;;;;;3.70;92.55;98596.66;1698118;83;20159;-78
2022/01/06 00:50:06;;;;;;;;;;;;;;;3.66;92.21;98609.17;1690876;83;20184;-77
2022/01/06 00:52:33;;;;;;;;;;;;;;;3.74;92.51;98603.20;1704166;83;21079;-76
2022/01/06 00:54:58;;;;;;;;;;;;;;;3.54;92.56;98598.16;1696638;83;20234;-79
2022/01/06 00:57:24;;;;;;;;;;;;;;;3.52;93.47;98602.69;1697909;83;20149;-79
2022/01/06 00:59:49;;;;;;;;;;;;;;;3.63;93.60;98601.64;1697627;83;20136;-78
2022/01/06 01:02:15;;;;;;;;;;;;;;;3.65;93.94;98597.58;1694217;83;20162;-80
2022/01/06 01:04:40;;;;;;;;;;;;;;;3.63;92.97;98589.09;1696760;83;21032;-76
2022/01/06 01:07:06;;;;;;;;;;;;;;;3.83;92.84;98597.08;1702851;83;20195;-78
2022/01/06 01:09:32;;;;;;;;;;;;;;;3.64;93.19;98592.85;1691881;83;20463;-76
2022/01/06 01:12:02;;;;;;;;;;;;;;;4.06;91.72;98597.91;1700601;83;20187;-81
2022/01/06 01:14:28;;;;;;;;;;;;;;;3.97;91.12;98598.32;1695009;83;20204;-77
2022/01/06 01:16:56;;;;;;;;;;;;;;;4.11;91.21;98593.03;1705439;83;20194;-76
2022/01/06 01:19:21;;;;;;;;;;;;;;;4.17;90.53;98591.11;1699436;83;20638;-82
2022/01/06 01:21:46;;;;;;;;;;;;;;;3.85;91.00;98596.92;1697502;83;20215;-77
2022/01/06 01:24:12;;;;;;;;;;;;;;;3.87;91.81;98590.59;1706217;83;20214;-78
2022/01/06 01:26:38;;;;;;;;;;;;;;;3.94;91.83;98596.83;1697673;83;20448;-81
2022/01/06 01:29:03;;;;;;;;;;;;;;;3.79;92.16;98590.50;1705802;83;21126;-76
2022/01/06 01:31:36;;;;;;;;;;;;;;;3.82;92.33;98593.31;1699653;83;20907;-76
2022/01/06 01:33:59;;;;;;;;;;;;;;;3.79;92.15;98593.12;1696307;83;20151;-79
2022/01/06 01:36:24;;;;;;;;;;;;;;;3.83;92.38;98588.43;1692584;83;20163;-80
2022/01/06 01:38:50;;;;;;;;;;;;;;;3.82;92.25;98587.59;1709753;83;20143;-77
2022/01/06 01:41:16;;;;;;;;;;;;;;;3.56;93.45;98586.27;1699026;83;21165;-81
2022/01/06 01:43:41;;;;;;;;;;;;;;;3.61;93.90;98580.59;1699987;83;20202;-76
2022/01/06 01:46:13;;;;;;;;;;;;;;;3.48;93.79;98583.09;1716193;83;20267;-78
2022/01/06 01:48:41;;;;;;;;;;;;;;;3.58;94.29;98581.70;1709275;83;20168;-75
2022/01/06 01:51:08;;;;;;;;;;;;;;;3.52;94.64;98573.98;1703711;83;20203;-77
2022/01/06 01:53:33;;;;;;;;;;;;;;;3.59;94.42;98584.16;1711047;83;20091;-79
2022/01/06 01:55:58;;;;;;;;;;;;;;;3.52;94.29;98581.81;1716583;83;20491;-75
2022/01/06 01:58:24;;;;;;;;;;;;;;;3.82;93.72;98590.20;1708659;83;20962;-77
2022/01/06 02:00:50;;;;;;;;;;;;;;;3.56;94.53;98581.85;1704300;83;20200;-76
2022/01/06 02:03:16;;;;;;;;;;;;;;;3.58;94.86;98572.07;1697432;83;20185;-81
2022/01/06 02:05:42;;;;;;;;;;;;;;;3.66;93.87;98587.48;1701627;83;21051;-78
2022/01/06 02:08:07;;;;;;;;;;;;;;;3.45;95.80;98583.39;1696935;83;20290;-82
2022/01/06 02:10:33;;;;;;;;;;;;;;;3.52;96.32;98589.64;1689841;83;20182;-75
2022/01/06 02:13:00;;;;;;;;;;;;;;;3.62;96.55;98596.56;1707092;83;20199;-79
2022/01/06 02:15:26;;;;;;;;;;;;;;;3.37;98.58;98593.73;1717889;82;20151;-76
2022/01/06 02:17:52;;;;;;;;;;;;;;;3.63;98.00;98594.30;1694065;83;21058;-79
2022/01/06 02:20:18;;;;;;;;;;;;;;;3.72;97.59;98597.32;1699079;83;20501;-77
2022/01/06 02:22:44;;;;;;;;;;;;;;;3.51;98.38;98588.02;1694000;83;20248;-82
2022/01/06 02:25:12;;;;;;;;;;;;;;;3.38;99.04;98598.80;1677364;83;20439;-76
2022/01/06 02:27:38;;;;;;;;;;;;;;;3.39;100.00;98593.13;1700309;83;20175;-75
2022/01/06 02:30:04;;;;;;;;;;;;;;;3.73;98.74;98597.66;1708844;83;21208;-76
2022/01/06 02:32:30;;;;;;;;;;;;;;;3.62;98.98;98591.34;1714102;82;20203;-78
2022/01/06 02:34:56;;;;;;;;;;;;;;;3.65;99.53;98592.36;1709298;83;20175;-80
2022/01/06 02:37:21;;;;;;;;;;;;;;;3.73;99.63;98585.91;1707298;83;20220;-76
2022/01/06 02:39:47;;;;;;;;;;;;;;;3.78;98.58;98581.86;1690302;83;20182;-79
2022/01/06 02:42:12;;;;;;;;;;;;;;;3.69;98.94;98586.69;1703068;83;21012;-77
2022/01/06 02:44:39;;;;;;;;;;;;;;;3.91;97.81;98581.45;1699623;83;20790;-75
2022/01/06 02:47:07;;;;;;;;;;;;;;;3.97;97.06;98589.67;1689467;83;20209;-76
2022/01/06 02:49:34;;;;;;;;;;;;;;;3.91;97.48;98572.31;1671742;83;20170;-80
2022/01/06 02:51:59;;;;;;;;;;;;;;;3.50;100.00;98573.31;1700265;83;20204;-75
2022/01/06 02:54:25;;;;;;;;;;;;;;;3.52;100.00;98581.00;1697594;83;21144;-78
2022/01/06 02:56:52;;;;;;;;;;;;;;;3.39;100.00;98576.97;1690081;83;20219;-78
2022/01/06 02:59:18;;;;;;;;;;;;;;;3.45;100.00;98586.00;1690762;83;20152;-75
2022/01/06 03:01:43;;;;;;;;;;;;;;;3.33;100.00;98583.28;1686970;83;20235;-75
2022/01/06 03:04:10;;;;;;;;;;;;;;;3.22;100.00;98586.43;1700067;83;20152;-76
2022/01/06 03:06:35;;;;;;;;;;;;;;;3.37;100.00;98583.30;1690096;83;21144;-76
2022/01/06 03:09:01;;;;;;;;;;;;;;;3.40;100.00;98581.70;1690389;83;20659;-76
2022/01/06 03:11:27;;;;;;;;;;;;;;;3.40;100.00;98588.22;1684103;83;20171;-75
2022/01/06 03:13:53;;;;;;;;;;;;;;;3.54;100.00;98587.72;1684869;83;20200;-76
2022/01/06 03:16:19;;;;;;;;;;;;;;;3.52;100.00;98592.25;1682950;83;20534;-75
2022/01/06 03:18:44;;;;;;;;;;;;;;;3.32;100.00;98593.37;1689962;83;21161;-77
2022/01/06 03:21:10;;;;;;;;;;;;;;;3.32;100.00;98606.41;1683243;83;20218;-77
2022/01/06 03:23:35;;;;;;;;;;;;;;;3.36;100.00;98606.46;1698706;83;20172;-76
2022/01/06 03:26:01;;;;;;;;;;;;;;;3.61;100.00;98594.95;1694994;83;20885;-77
2022/01/06 03:28:27;;;;;;;;;;;;;;;3.57;100.00;98601.77;1691864;83;20180;-75
2022/01/06 03:30:52;;;;;;;;;;;;;;;3.64;100.00;98603.78;1693674;83;22048;-76
2022/01/06 03:33:18;;;;;;;;;;;;;;;3.69;100.00;98610.67;1689049;83;20188;-77
2022/01/06 03:35:44;;;;;;;;;;;;;;;3.53;100.00;98614.77;1699703;83;20754;-74
2022/01/06 03:38:09;;;;;;;;;;;;;;;3.43;100.00;98619.23;1696017;83;20267;-76
2022/01/06 03:40:35;;;;;;;;;;;;;;;3.54;100.00;98612.52;1687106;83;20490;-79
2022/01/06 03:43:01;;;;;;;;;;;;;;;3.45;100.00;98626.45;1692058;83;21260;-75
2022/01/06 03:45:27;;;;;;;;;;;;;;;3.48;100.00;98613.11;1690320;83;20173;-78
2022/01/06 03:47:52;;;;;;;;;;;;;;;3.51;100.00;98619.33;1697412;83;20469;-75
2022/01/06 03:50:18;;;;;;;;;;;;;;;3.58;100.00;98613.84;1679281;83;20408;-77
2022/01/06 03:52:44;;;;;;;;;;;;;;;3.52;100.00;98618.34;1701500;83;20144;-76
2022/01/06 03:55:12;;;;;;;;;;;;;;;3.55;100.00;98625.88;1698932;83;21176;-82
2022/01/06 03:57:37;;;;;;;;;;;;;;;3.64;100.00;98617.65;1690502;83;20228;-77
2022/01/06 04:00:08;;;;;;;;;;;;;;;3.74;100.00;98621.48;1696999;83;20461;-79
2022/01/06 04:02:34;;;;;;;;;;;;;;;3.61;100.00;98623.66;1684523;83;20201;-74
2022/01/06 04:05:02;;;;;;;;;;;;;;;3.65;100.00;98619.77;1694629;83;20676;-75
2022/01/06 04:07:28;;;;;;;;;;;;;;;3.78;100.00;98625.44;1683669;83;21995;-76
2022/01/06 04:09:53;;;;;;;;;;;;;;;3.76;100.00;98620.86;1675307;83;20380;-76
2022/01/06 04:12:19;;;;;;;;;;;;;;;3.69;100.00;98632.86;1680689;83;21379;-76
2022/01/06 04:14:45;;;;;;;;;;;;;;;3.75;100.00;98633.57;1693497;83;20795;-79
2022/01/06 04:17:11;;;;;;;;;;;;;;;3.74;100.00;98668.01;1697330;83;20172;-75
2022/01/06 04:19:36;;;;;;;;;;;;;;;3.82;100.00;98625.95;1694229;83;21288;-75
2022/01/06 04:22:06;;;;;;;;;;;;;;;3.75;100.00;98636.19;1687185;83;20160;-76
2022/01/06 04:24:32;;;;;;;;;;;;;;;3.62;100.00;98628.73;1687606;83;20178;-75
2022/01/06 04:26:57;;;;;;;;;;;;;;;3.79;100.00;98637.50;1688975;83;20189;-76
2022/01/06 04:29:23;;;;;;;;;;;;;;;3.87;98.97;98650.65;1713788;82;20354;-76
2022/01/06 04:31:49;;;;;;;;;;;;;;;3.81;98.94;98632.97;1679661;84;20877;-75
2022/01/06 04:34:15;;;;;;;;;;;;;;;3.77;99.33;98657.73;1696511;82;20864;-78
2022/01/06 04:36:46;;;;;;;;;;;;;;;3.76;99.68;98643.05;1701727;84;20180;-76
2022/01/06 04:39:08;;;;;;;;;;;;;;;3.84;100.00;98652.72;1713429;82;20471;-75
2022/01/06 04:41:33;;;;;;;;;;;;;;;3.69;100.00;98638.09;1701043;82;20168;-75
2022/01/06 04:43:59;;;;;;;;;;;;;;;3.73;100.00;98657.71;1709938;82;21256;-75
2022/01/06 04:46:25;;;;;;;;;;;;;;;3.78;100.00;98646.33;1703583;82;20243;-81
2022/01/06 04:48:50;;;;;;;;;;;;;;;3.77;100.00;98653.31;1705048;82;20714;-76
2022/01/06 04:51:16;;;;;;;;;;;;;;;3.69;100.00;98649.83;1705838;82;20165;-79
2022/01/06 04:53:41;;;;;;;;;;;;;;;3.51;100.00;98671.53;1702508;82;20153;-75
2022/01/06 04:56:07;;;;;;;;;;;;;;;3.29;100.00;98695.41;1699870;82;21034;-75
2022/01/06 04:58:33;;;;;;;;;;;;;;;3.22;100.00;98663.38;1708567;82;20141;-78
2022/01/06 05:00:59;;;;;;;;;;;;;;;3.26;100.00;98670.91;1712011;82;20225;-83
2022/01/06 05:03:24;;;;;;;;;;;;;;;3.23;100.00;98671.55;1714533;82;20221;-75
2022/01/06 05:05:50;;;;;;;;;;;;;;;3.30;100.00;98676.19;1697008;82;20110;-78
2022/01/06 05:08:15;;;;;;;;;;;;;;;3.22;100.00;98683.44;1707882;82;21147;-82
2022/01/06 05:10:41;;;;;;;;;;;;;;;3.11;100.00;98690.97;1713267;82;20234;-76
2022/01/06 05:13:06;;;;;;;;;;;;;;;3.38;100.00;98689.31;1713715;82;20173;-75
2022/01/06 05:15:32;;;;;;;;;;;;;;;3.43;100.00;98692.30;1720089;82;20119;-76
2022/01/06 05:17:58;;;;;;;;;;;;;;;3.37;100.00;98678.07;1711982;82;20856;-75
2022/01/06 05:20:25;;;;;;;;;;;;;;;3.14;100.00;98677.64;1700698;82;21317;-77
2022/01/06 05:22:54;;;;;;;;;;;;;;;3.13;100.00;98679.09;1707671;82;20209;-82
2022/01/06 05:25:24;;;;;;;;;;;;;;;3.17;100.00;98683.88;1703840;82;20193;-81
2022/01/06 05:27:46;;;;;;;;;;;;;;;3.15;100.00;98698.83;1707028;82;20156;-81
2022/01/06 05:30:12;;;;;;;;;;;;;;;3.22;100.00;98694.69;1706278;82;20146;-75
2022/01/06 05:32:38;;;;;;;;;;;;;;;3.10;100.00;98685.90;1705864;82;21151;-81
2022/01/06 05:35:04;;;;;;;;;;;;;;;3.32;100.00;98698.54;1699834;82;20478;-75
2022/01/06 05:37:30;;;;;;;;;;;;;;;3.24;100.00;98686.22;1708040;82;20163;-75
2022/01/06 05:39:55;;;;;;;;;;;;;;;3.23;100.00;98702.86;1702722;82;20208;-81
2022/01/06 05:42:21;;;;;;;;;;;;;;;3.30;100.00;98697.06;1710119;82;20127;-79
2022/01/06 05:44:46;;;;;;;;;;;;;;;3.30;100.00;98698.36;1718604;82;21039;-79
2022/01/06 05:47:12;;;;;;;;;;;;;;;3.32;100.00;98723.81;1713469;82;20335;-78
2022/01/06 05:49:38;;;;;;;;;;;;;;;3.30;100.00;98708.31;1711724;82;20216;-79
2022/01/06 05:52:04;;;;;;;;;;;;;;;3.37;100.00;98713.76;1703076;82;20145;-75
2022/01/06 05:54:29;;;;;;;;;;;;;;;3.36;100.00;98712.13;1700072;82;20180;-76
2022/01/06 05:56:55;;;;;;;;;;;;;;;3.31;100.00;98735.21;1706448;82;21920;-79
2022/01/06 05:59:20;;;;;;;;;;;;;;;3.32;100.00;98731.64;1704354;82;20189;-79
2022/01/06 06:01:46;;;;;;;;;;;;;;;3.29;100.00;98716.28;1710145;82;20122;-79
2022/01/06 06:04:12;;;;;;;;;;;;;;;3.43;100.00;98723.61;1718808;82;20108;-76
2022/01/06 06:06:38;;;;;;;;;;;;;;;3.39;100.00;98733.53;1710917;82;20181;-76
2022/01/06 06:09:04;;;;;;;;;;;;;;;3.32;100.00;98742.08;1709442;82;21108;-76
2022/01/06 06:11:30;;;;;;;;;;;;;;;3.33;100.00;98724.17;1710223;82;20188;-75
2022/01/06 06:13:55;;;;;;;;;;;;;;;3.23;100.00;98747.20;1713595;82;20229;-77
2022/01/06 06:16:21;;;;;;;;;;;;;;;3.20;100.00;98765.75;1698438;82;20121;-76
2022/01/06 06:18:46;;;;;;;;;;;;;;;3.28;100.00;98756.37;1705005;82;20530;-79
2022/01/06 06:21:12;;;;;;;;;;;;;;;3.22;100.00;98770.33;1710357;82;21275;-79
2022/01/06 06:23:37;;;;;;;;;;;;;;;3.11;100.00;98777.05;1706113;82;20161;-76
2022/01/06 06:26:03;;;;;;;;;;;;;;;3.35;100.00;98768.70;1700387;82;20284;-76
2022/01/06 06:28:29;;;;;;;;;;;;;;;3.28;100.00;98769.41;1703633;82;20133;-76
2022/01/06 06:30:54;;;;;;;;;;;;;;;3.26;100.00;98792.23;1707216;82;20164;-76
2022/01/06 06:33:20;;;;;;;;;;;;;;;3.16;100.00;98788.35;1702589;82;21319;-77
2022/01/06 06:35:46;;;;;;;;;;;;;;;3.45;100.00;98791.31;1710301;82;20252;-79
2022/01/06 06:38:11;;;;;;;;;;;;;;;3.41;100.00;98807.27;1724984;82;20274;-81
2022/01/06 06:40:37;;;;;;;;;;;;;;;3.33;100.00;98788.09;1712565;82;20659;-75
2022/01/06 06:43:03;;;;;;;;;;;;;;;3.41;100.00;98803.84;1689779;83;20172;-76
2022/01/06 06:45:28;;;;;;;;;;;;;;;3.27;100.00;98804.31;1702389;83;21139;-78
2022/01/06 06:47:54;;;;;;;;;;;;;;;3.41;100.00;98815.09;1685798;83;20865;-79
2022/01/06 06:50:21;;;;;;;;;;;;;;;3.30;100.00;98818.38;1689122;83;20208;-76
2022/01/06 06:52:47;;;;;;;;;;;;;;;3.40;100.00;98815.23;1693869;83;20138;-77
2022/01/06 06:55:13;;;;;;;;;;;;;;;3.40;100.00;98812.63;1697111;83;20215;-75
2022/01/06 06:57:38;;;;;;;;;;;;;;;3.37;100.00;98823.34;1690902;83;21115;-76
2022/01/06 07:00:05;;;;;;;;;;;;;;;3.42;100.00;98823.77;1697399;83;20286;-80
2022/01/06 07:02:31;;;;;;;;;;;;;;;3.49;100.00;98838.36;1676167;83;20172;-78
2022/01/06 07:04:57;;;;;;;;;;;;;;;3.32;100.00;98833.40;1699253;83;20191;-75
2022/01/06 07:07:22;;;;;;;;;;;;;;;3.32;100.00;98841.23;1699130;83;20266;-76
2022/01/06 07:09:48;;;;;;;;;;;;;;;3.24;100.00;98846.66;1694737;83;21147;-82
2022/01/06 07:12:14;;;;;;;;;;;;;;;3.07;100.00;98866.95;1718133;83;20611;-78
2022/01/06 07:14:39;;;;;;;;;;;;;;;3.16;100.00;98856.98;1691383;83;20431;-79
2022/01/06 07:17:05;;;;;;;;;;;;;;;3.12;100.00;98851.70;1694443;83;20589;-76
2022/01/06 07:19:30;;;;;;;;;;;;;;;2.97;98.74;98863.06;1697612;83;20144;-75
2022/01/06 07:21:56;;;;;;;;;;;;;;;2.96;98.17;98872.33;1694474;83;21161;-79
2022/01/06 07:24:21;;;;;;;;;;;;;;;2.99;97.99;98881.18;1684170;83;20172;-77
2022/01/06 07:26:47;;;;;;;;;;;;;;;2.94;97.39;98864.64;1706113;83;20573;-79
2022/01/06 07:29:13;;;;;;;;;;;;;;;3.05;97.06;98866.28;1694744;83;20175;-76
2022/01/06 07:31:38;;;;;;;;;;;;;;;3.00;97.09;98880.23;1703034;83;20143;-79
2022/01/06 07:34:04;;;;;;;;;;;;;;;3.04;97.75;98872.45;1699960;83;21305;-78
2022/01/06 07:36:30;;;;;;;;;;;;;;;2.88;98.52;98879.05;1698304;83;20150;-81
2022/01/06 07:38:55;;;;;;;;;;;;;;;2.88;98.54;98885.56;1718789;82;20141;-79
2022/01/06 07:41:21;;;;;;;;;;;;;;;2.81;98.88;98888.41;1704695;82;20613;-74
2022/01/06 07:43:46;;;;;;;;;;;;;;;2.79;98.56;98899.92;1715150;82;20187;-77
2022/01/06 07:46:12;;;;;;;;;;;;;;;2.83;98.41;98879.95;1707065;82;22173;-76
2022/01/06 07:48:57;;;;;;;;;;;;;;;2.93;98.42;98876.03;1699983;82;20277;-76
2022/01/06 07:51:28;;;;;;;;;;;;;;;2.84;98.48;98882.91;1718052;82;20471;-80
2022/01/06 07:53:53;;;;;;;;;;;;;;;2.81;98.49;98898.83;1678783;82;20221;-81
2022/01/06 07:56:19;;;;;;;;;;;;;;;2.91;98.37;98891.48;1707342;82;20366;-77
2022/01/06 07:58:45;;;;;;;;;;;;;;;2.90;98.32;98895.05;1704378;82;22419;-76
2022/01/06 08:01:10;;;;;;;;;;;;;;;2.72;98.31;98915.75;1716871;82;20196;-76
2022/01/06 08:03:36;;;;;;;;;;;;;;;2.64;98.03;98906.00;1716865;82;20224;-80
2022/01/06 08:06:01;;;;;;;;;;;;;;;2.82;98.00;98913.49;1703775;82;20186;-76
2022/01/06 08:08:27;;;;;;;;;;;;;;;2.86;97.25;98920.09;1701628;82;20157;-78
2022/01/06 08:10:53;;;;;;;;;;;;;;;2.78;96.90;98919.11;1703571;82;21974;-84
2022/01/06 08:13:18;;;;;;;;;;;;;;;2.83;96.62;98934.70;1710426;82;20138;-81
2022/01/06 08:15:44;;;;;;;;;;;;;;;2.75;96.01;98942.84;1697246;82;20187;-83
2022/01/06 08:18:09;;;;;;;;;;;;;;;2.68;96.51;98924.33;1706805;82;20696;-76
2022/01/06 08:20:36;;;;;;;;;;;;;;;2.67;96.01;98932.64;1710011;82;20138;-77
2022/01/06 08:23:02;;;;;;;;;;;;;;;2.55;95.73;98944.60;1700619;82;21938;-76
2022/01/06 08:25:27;;;;;;;;;;;;;;;2.60;95.64;98956.28;1704661;82;20271;-78
2022/01/06 08:27:53;;;;;;;;;;;;;;;2.60;97.08;98941.14;1708413;82;20189;-79
2022/01/06 08:30:19;;;;;;;;;;;;;;;2.64;96.85;98949.85;1697380;82;20177;-80
2022/01/06 08:32:44;;;;;;;;;;;;;;;2.49;96.17;98950.70;1709838;82;20197;-75
2022/01/06 08:35:10;;;;;;;;;;;;;;;2.54;94.76;98956.01;1710247;82;21173;-78
2022/01/06 08:37:36;;;;;;;;;;;;;;;2.40;93.84;98968.44;1707767;82;20208;-84
2022/01/06 08:40:02;;;;;;;;;;;;;;;2.39;93.52;98958.97;1702882;82;20255;-79
2022/01/06 08:42:28;;;;;;;;;;;;;;;2.41;92.91;98964.89;1710376;82;20216;-78
2022/01/06 08:44:54;;;;;;;;;;;;;;;2.41;93.32;98963.59;1712929;82;20288;-76
2022/01/06 08:47:20;;;;;;;;;;;;;;;2.40;94.13;98972.84;1718569;82;21093;-79
2022/01/06 08:49:45;;;;;;;;;;;;;;;2.31;95.06;98975.75;1715839;82;20260;-76
2022/01/06 08:52:11;;;;;;;;;;;;;;;2.51;94.93;98964.41;1711507;82;20429;-81
2022/01/06 08:54:36;;;;;;;;;;;;;;;2.38;95.00;98999.02;1717028;82;20136;-79
2022/01/06 08:57:02;;;;;;;;;;;;;;;2.45;95.16;98986.28;1715969;82;20303;-81
2022/01/06 08:59:28;;;;;;;;;;;;;;;2.45;94.95;98997.52;1701908;82;21112;-86
2022/01/06 09:01:54;;;;;;;;;;;;;;;2.35;95.38;99007.11;1711068;82;20140;-78
2022/01/06 09:04:20;;;;;;;;;;;;;;;2.44;94.94;99006.31;1720074;82;20458;-76
2022/01/06 09:06:48;;;;;;;;;;;;;;;2.53;94.62;99006.47;1715239;82;20947;-78
2022/01/06 09:09:14;;;;;;;;;;;;;;;2.47;94.14;99017.77;1700032;82;20158;-77
2022/01/06 09:11:41;;;;;;;;;;;;;;;2.55;94.44;99005.84;1705527;82;21036;-78
2022/01/06 09:14:06;;;;;;;;;;;;;;;2.37;94.13;99016.91;1714651;82;20133;-85
2022/01/06 09:16:32;;;;;;;;;;;;;;;2.43;94.03;99015.08;1709222;82;20136;-81
2022/01/06 09:18:57;;;;;;;;;;;;;;;2.40;93.73;99008.83;1706858;82;20165;-79
2022/01/06 09:21:24;;;;;;;;;;;;;;;2.42;93.71;99017.33;1719753;82;20461;-77
2022/01/06 09:23:53;;;;;;;;;;;;;;;2.40;93.57;99014.03;1706861;82;21449;-76
2022/01/06 09:26:19;;;;;;;;;;;;;;;2.34;93.61;99029.70;1711608;82;20117;-79
2022/01/06 09:28:45;;;;;;;;;;;;;;;2.33;94.20;99018.11;1716173;82;20335;-79
2022/01/06 09:31:10;;;;;;;;;;;;;;;2.44;93.84;99027.16;1719301;82;20192;-79
2022/01/06 09:33:36;;;;;;;;;;;;;;;2.35;94.12;99020.13;1705536;82;20267;-80
2022/01/06 09:36:02;;;;;;;;;;;;;;;2.36;93.97;99032.18;1709594;82;21085;-77
2022/01/06 09:38:27;;;;;;;;;;;;;;;2.41;93.96;99023.52;1701048;82;20825;-80
2022/01/06 09:40:53;;;;;;;;;;;;;;;2.44;93.88;99033.67;1709076;82;20186;-77
2022/01/06 09:43:25;;;;;;;;;;;;;;;2.55;93.85;99054.05;1711244;82;20152;-78
2022/01/06 09:45:51;;;;;;;;;;;;;;;2.49;93.63;99028.06;1717324;82;20337;-76
2022/01/06 09:48:17;;;;;;;;;;;;;;;2.45;93.71;99028.78;1706033;82;21090;-82
2022/01/06 09:50:43;;;;;;;;;;;;;;;2.41;94.22;99036.54;1712898;82;20194;-78
2022/01/06 09:53:12;;;;;;;;;;;;;;;2.34;94.90;99038.01;1706188;82;20173;-81
2022/01/06 09:55:39;;;;;;;;;;;;;;;2.34;96.10;99040.61;1706784;82;20185;-80
2022/01/06 09:58:05;;;;;;;;;;;;;;;2.37;97.32;99040.35;1708161;82;20168;-77
2022/01/06 10:00:32;;;;;;;;;;;;;;;2.44;97.66;99044.09;1711552;82;21154;-76
2022/01/06 10:03:00;;;;;;;;;;;;;;;2.37;99.06;99039.05;1709278;82;20213;-76
2022/01/06 10:05:26;;;;;;;;;;;;;;;2.13;100.00;99048.00;1707361;82;20738;-78
2022/01/06 10:07:55;;;;;;;;;;;;;;;2.14;100.00;99052.27;1685121;82;20429;-80
2022/01/06 10:10:24;;;;;;;;;;;;;;;2.06;100.00;99038.23;1702683;82;20247;-77
2022/01/06 10:12:57;;;;;;;;;;;;;;;2.14;100.00;99040.55;1713425;82;21117;-76
2022/01/06 10:15:24;;;;;;;;;;;;;;;2.03;100.00;99041.91;1711517;82;20135;-88
2022/01/06 10:17:50;;;;;;;;;;;;;;;2.09;100.00;99036.18;1688368;84;21040;-82
2022/01/06 10:20:17;;;;;;;;;;;;;;;2.10;100.00;99045.66;1683355;84;20106;-77
2022/01/06 10:22:51;;;;;;;;;;;;;;;1.97;100.00;99042.42;1689662;84;20189;-79
2022/01/06 10:25:18;;;;;;;;;;;;;;;2.04;100.00;99045.35;1688919;84;21109;-81
2022/01/06 10:27:45;;;;;;;;;;;;;;;1.92;100.00;99044.59;1683517;84;20223;-79
2022/01/06 10:30:12;;;;;;;;;;;;;;;2.00;100.00;99059.08;1686765;84;20468;-77
2022/01/06 10:32:38;;;;;;;;;;;;;;;1.96;100.00;99052.50;1685783;84;20175;-77
2022/01/06 10:35:04;;;;;;;;;;;;;;;2.03;100.00;99061.44;1687281;84;20182;-81
2022/01/06 10:37:35;;;;;;;;;;;;;;;2.15;100.00;99069.52;1686535;84;21066;-80
2022/01/06 10:40:04;;;;;;;;;;;;;;;2.11;100.00;99068.15;1681923;84;20760;-80
2022/01/06 10:42:32;;;;;;;;;;;;;;;2.02;100.00;99081.94;1677489;85;32632;-80
2022/01/06 10:45:04;;;;;;;;;;;;;;;2.20;100.00;99074.83;1653965;85;20227;-79
2022/01/06 10:47:32;;;;;;;;;;;;;;;2.22;100.00;99088.54;1681213;84;20488;-76
2022/01/06 10:50:11;;;;;;;;;;;;;;;2.22;100.00;99083.33;1676566;83;21151;-77
2022/01/06 10:52:39;;;;;;;;;;;;;;;2.25;99.65;99076.56;1685993;83;20160;-77
2022/01/06 10:55:14;;;;;;;;;;;;;;;2.20;99.48;99083.95;1688334;83;20589;-75
2022/01/06 10:57:55;;;;;;;;;;;;;;;2.23;99.44;99082.39;1681001;83;20212;-84
2022/01/06 11:00:22;;;;;;;;;;;;;;;2.23;99.17;99096.71;1685368;83;20212;-76
2022/01/06 11:02:47;;;;;;;;;;;;;;;2.13;99.76;99098.78;1692739;83;20647;-78
2022/01/06 11:05:13;;;;;;;;;;;;;;;2.14;99.38;99087.42;1672490;83;20184;-76
2022/01/06 11:07:38;;;;;;;;;;;;;;;2.11;99.95;99085.08;1690260;83;20260;-84
2022/01/06 11:10:13;;;;;;;;;;;;;;;2.18;100.00;99096.28;1689180;83;20152;-76
2022/01/06 11:12:33;;;;;;;;;;;;;;;2.10;100.00;99097.73;1685158;83;20343;-80
2022/01/06 11:15:00;;;;;;;;;;;;;;;2.04;100.00;99098.25;1687594;83;20406;-77
2022/01/06 11:17:25;;;;;;;;;;;;;;;1.99;100.00;99103.02;1684376;83;20164;-80
2022/01/06 11:19:51;;;;;;;;;;;;;;;1.90;100.00;99109.80;1692842;83;20599;-82
2022/01/06 11:22:24;;;;;;;;;;;;;;;1.86;100.00;99103.19;1683057;83;20232;-77
2022/01/06 11:24:55;;;;;;;;;;;;;;;1.87;100.00;99107.94;1685352;83;21047;-77
2022/01/06 11:27:34;;;;;;;;;;;;;;;1.88;100.00;99099.16;1692600;83;21090;-80
2022/01/06 11:30:08;;;;;;;;;;;;;;;1.80;100.00;99111.50;1693318;83;20204;-77
2022/01/06 11:32:34;;;;;;;;;;;;;;;1.73;100.00;99102.08;1680232;83;20181;-79
2022/01/06 11:35:04;;;;;;;;;;;;;;;1.71;100.00;99099.23;1687870;83;20709;-78
2022/01/06 11:37:49;;;;;;;;;;;;;;;1.52;100.00;99142.36;1680347;83;20208;-79
2022/01/06 11:40:16;;;;;;;;;;;;;;;1.45;100.00;99116.98;1685531;83;20997;-76
2022/01/06 11:42:57;;;;;;;;;;;;;;;1.61;100.00;99109.58;1680996;83;21011;-76
2022/01/06 11:45:23;;;;;;;;;;;;;;;1.53;100.00;99118.00;1686216;83;20207;-78
2022/01/06 11:48:00;;;;;;;;;;;;;;;1.39;100.00;99116.99;1682063;83;20182;-76
2022/01/06 11:50:26;;;;;;;;;;;;;;;1.55;100.00;99100.48;1689236;83;20252;-77
2022/01/06 11:52:58;;;;;;;;;;;;;;;1.45;100.00;99118.29;1684344;83;21345;-82
2022/01/06 11:55:26;;;;;;;;;;;;;;;1.52;100.00;99108.53;1697090;83;20208;-79
2022/01/06 11:57:51;;;;;;;;;;;;;;;1.46;100.00;99105.61;1692216;83;20219;-76
2022/01/06 12:00:23;;;;;;;;;;;;;;;1.49;100.00;99111.87;1685063;83;21002;-78
2022/01/06 12:03:09;;;;;;;;;;;;;;;1.48;100.00;99129.75;1681515;83;20232;-81
2022/01/06 12:05:49;;;;;;;;;;;;;;;1.53;100.00;99112.80;1684265;83;21049;-77
2022/01/06 12:08:19;;;;;;;;;;;;;;;1.61;100.00;99134.30;1682259;83;20247;-77
2022/01/06 12:10:46;;;;;;;;;;;;;;;1.56;100.00;99114.34;1683166;83;20185;-77
2022/01/06 12:13:12;;;;;;;;;;;;;;;1.64;100.00;99119.73;1678945;83;20188;-77
2022/01/06 12:15:51;;;;;;;;;;;;;;;1.47;100.00;99120.28;1690388;83;20147;-85
2022/01/06 12:18:19;;;;;;;;;;;;;;;1.50;100.00;99146.87;1686357;83;21155;-77
2022/01/06 12:20:45;;;;;;;;;;;;;;;1.61;100.00;99130.39;1682759;83;20190;-77
2022/01/06 12:23:10;;;;;;;;;;;;;;;1.48;100.00;99153.16;1685922;83;20200;-84
2022/01/06 12:25:36;;;;;;;;;;;;;;;1.39;100.00;99154.71;1693319;83;20911;-82
2022/01/06 12:28:02;;;;;;;;;;;;;;;1.24;100.00;99161.94;1679299;83;20228;-78
2022/01/06 12:30:30;;;;;;;;;;;;;;;0.96;100.00;99188.80;1677236;83;21085;-77
2022/01/06 12:33:00;;;;;;;;;;;;;;;0.86;100.00;99169.67;1684902;83;20183;-79
2022/01/06 12:35:35;;;;;;;;;;;;;;;0.56;100.00;99185.37;1677877;83;20200;-79
2022/01/06 12:38:01;;;;;;;;;;;;;;;0.56;100.00;99187.97;1687902;83;20729;-76
2022/01/06 12:43:30;;;;;;;;;;;;;;;0.25;100.00;99207.59;1664803;83;20169;-78
2022/01/06 12:46:11;;;;;;;;;;;;;;;-0.03;100.00;99233.81;1730690;80;20177;-84
2022/01/06 12:48:45;;;;;;;;;;;;;;;-0.05;100.00;99228.37;1733551;80;20156;-76
2022/01/06 12:51:13;;;;;;;;;;;;;;;-0.03;100.00;99249.39;1726898;82;20176;-80
2022/01/06 12:53:41;;;;;;;;;;;;;;;-0.19;100.00;99274.32;1726313;82;20268;-79
2022/01/06 12:56:07;;;;;;;;;;;;;;;-0.04;100.00;99260.70;1727798;80;21227;-76
2022/01/06 12:58:36;;;;;;;;;;;;;;;2.02;100.00;99257.70;1676266;84;20289;-76